Terminal Aerodrome Forecast
Issued by NWS

Home | Current Version | Previous Version | Text Only | Print | Product List | Glossary On
Versions: 1 2 3 4 5 6 7 8 9 10 11 12 13 14 15 16 17 18 19 20 21
463
FTUS43 KICT 211130
TAFCNU
TAF
KCNU 211130Z 2112/2212 21005KT P6SM FEW200
     FM212000 16008KT P6SM BKN090
     FM220000 13005KT P6SM VCSH BKN070
     FM220400 09005KT 4SM -SHRA BR BKN020=

USA.gov is the U.S. government's official web portal to all federal, state and local government web resources and services.